• Join FlightAware (Why Join?)
  • Login
  • US Flag 
10:42AM EDT


 

Airport Tracker/Info


-or-


 

Live Flight TrackerFlight Track Log ✈ N6045S ✈ 04-Jul-2013 ✈ KTTN - KHTO

Flight Track Log - Related Links

Times and Time Zones

All times are in EDT time to prevent confusion due to time zone crossing. See the N6045S flight status page for this flight to view local times or setup timezone preferences in your user account.

Time Position Orientation Groundspeed Altitude Reporting Facility
EDT Latitude Longitude Course Direction KTS MPH feet Rate Location/Type
03:30PM 40.2667 -74.8333 217° Southwest 101 116 600  Level Philadelphia TRACON
03:31PM 40.2333 -74.8667 217° Southwest 151 174 2,300 1,020 Climbing Philadelphia TRACON
03:32PM 40.2069 -74.8094 121° Southeast 200 230 3,000 840 Climbing New York Center
03:33PM 40.2117 -74.7364 85° East 230 265 4,100 960 Climbing New York Center
03:34PM 40.2078 -74.6656 94° East 220 253 5,000 480 Climbing New York Center
03:35PM 40.2042 -74.5811 93° East 220 253 5,100 -60 Climbing New York Center
03:36PM 40.2050 -74.4886 89° East 232 267 4,900 -120 Descending New York Center
03:37PM 40.1825 -74.4142 112° Southeast 238 274 4,900 240 Level New York Center
03:38PM 40.1533 -74.3394 117° Southeast 238 274 5,400 480 Climbing New York Center
03:39PM 40.1267 -74.2564 113° Southeast 227 261 5,900 900 Climbing New York Center
03:40PM 40.1061 -74.1794 109° East 227 261 7,200 1,140 Climbing New York Center
03:41PM 40.0808 -74.1103 116° Southeast 217 250 8,300 960 Climbing New York Center
03:42PM 40.0619 -74.0472 111° Southeast 210 242 9,200 840 Climbing New York Center
03:43PM 40.0389 -73.9783 114° Southeast 210 242 10,000 360 Climbing New York Center
03:44PM 40.0139 -73.8931 111° Southeast 219 252 10,000  Level New York Center
03:45PM 39.9869 -73.8106 113° Southeast 236 272 10,000  Level New York Center
03:46PM 39.9642 -73.7231 109° East 246 283 10,000  Level New York Center
03:47PM 39.9561 -73.6306 96° East 246 283 10,000  Level New York Center
03:48PM 39.9872 -73.5506 63° Northeast 241 277 10,000  Level New York Center
03:49PM 40.0450 -73.4878 40° Northeast 238 274 10,000  Level New York Center
03:50PM 40.0986 -73.4194 44° Northeast 260 299 10,000  Level New York Center
03:53PM 40.2197 -73.2581 45° Northeast 259 298 10,000  Level Boston Center
03:54PM 40.2703 -73.1906 46° Northeast 264 304 10,000 -360 Level Boston Center
03:55PM 40.3206 -73.1231 46° Northeast 264 304 9,300 -540 Descending Boston Center
03:56PM 40.3753 -73.0558 43° Northeast 264 304 9,000 -180 Descending Boston Center
03:57PM 40.4236 -72.9853 48° Northeast 259 298 9,000 -480 Level Boston Center
03:59PM 40.5500 -72.8167 45° Northeast 263 303 7,600 -600 Descending New York TRACON
04:00PM 40.6000 -72.7667 37° Northeast 258 297 7,100 -300 Descending New York TRACON
04:01PM 40.6500 -72.6833 52° Northeast 262 302 7,100 -240 Level New York TRACON
04:02PM 40.7000 -72.6167 45° Northeast 268 308 6,700 -720 Descending New York TRACON
04:03PM 40.7500 -72.5500 45° Northeast 262 302 5,800 -1,140 Descending New York TRACON
04:04PM 40.8000 -72.4833 45° Northeast 260 299 4,500 -1,260 Descending New York TRACON
04:05PM 40.8500 -72.4167 45° Northeast 261 300 3,300 -1,020 Descending New York TRACON
04:06PM 40.9000 -72.3500 45° Northeast 224 258 2,400 -900 Descending New York TRACON
04:07PM 40.9333 -72.2833 56° Northeast 201 231 1,500 -600 Descending New York TRACON
04:08PM 40.9333 -72.2167 90° East 158 182 1,300 -240 Descending New York TRACON